createdAt,value
2023-04-05T00:01:08.184Z,4.60
2023-04-05T00:03:35.357Z,4.50
2023-04-05T00:06:05.280Z,4.60
2023-04-05T00:08:32.760Z,4.60
2023-04-05T00:10:59.684Z,4.50
2023-04-05T00:13:27.211Z,4.60
2023-04-05T00:15:58.321Z,4.40
2023-04-05T00:18:26.852Z,4.30
2023-04-05T00:20:54.829Z,4.50
2023-04-05T00:23:22.667Z,4.40
2023-04-05T00:25:50.166Z,4.50
2023-04-05T00:28:17.114Z,4.60
2023-04-05T00:30:44.560Z,4.60
2023-04-05T00:33:13.547Z,4.60
2023-04-05T00:35:41.896Z,4.50
2023-04-05T00:38:09.414Z,4.50
2023-04-05T00:40:37.512Z,4.50
2023-04-05T00:43:04.467Z,4.50
2023-04-05T00:45:32.416Z,4.60
2023-04-05T00:47:59.963Z,4.70
2023-04-05T00:50:30.803Z,4.60
2023-04-05T00:52:59.785Z,4.60
2023-04-05T00:55:27.423Z,4.50
2023-04-05T00:57:58.562Z,4.50
2023-04-05T01:00:26.544Z,4.40
2023-04-05T01:03:01.674Z,4.40
2023-04-05T01:05:38.977Z,4.40
2023-04-05T01:08:22.672Z,4.50
2023-04-05T01:11:01.968Z,4.50
2023-04-05T01:13:30.812Z,4.50
2023-04-05T01:15:57.948Z,4.50
2023-04-05T01:18:26.227Z,4.50
2023-04-05T01:21:11.008Z,4.50
2023-04-05T01:23:54.698Z,4.50
2023-04-05T01:27:03.520Z,4.40
2023-04-05T01:29:54.563Z,4.30
2023-04-05T01:32:38.336Z,4.30
2023-04-05T01:35:17.415Z,4.30
2023-04-05T01:37:50.344Z,4.30
2023-04-05T01:40:18.137Z,4.30
2023-04-05T01:42:47.040Z,4.30
2023-04-05T01:45:15.777Z,4.20
2023-04-05T01:47:43.147Z,4.10
2023-04-05T01:50:11.200Z,4.10
2023-04-05T01:52:38.122Z,4.00
2023-04-05T01:55:06.621Z,4.00
2023-04-05T01:57:34.037Z,4.10
2023-04-05T02:00:01.727Z,4.10
2023-04-05T02:02:30.870Z,3.90
2023-04-05T02:04:57.833Z,3.90
2023-04-05T02:07:27.456Z,3.80
2023-04-05T02:09:54.355Z,3.80
2023-04-05T02:12:23.107Z,3.80
2023-04-05T02:14:51.463Z,3.70
2023-04-05T02:17:18.893Z,3.70
2023-04-05T02:19:47.357Z,3.70
2023-04-05T02:22:14.978Z,3.70
2023-04-05T02:24:41.971Z,3.70
2023-04-05T02:27:09.407Z,3.70
2023-04-05T02:29:36.409Z,3.70
2023-04-05T02:32:03.995Z,3.80
2023-04-05T02:34:31.654Z,3.70
2023-04-05T02:36:59.982Z,3.80
2023-04-05T02:39:29.410Z,3.80
2023-04-05T02:41:56.808Z,3.70
2023-04-05T02:44:24.317Z,3.70
2023-04-05T02:46:51.842Z,3.60
2023-04-05T02:49:19.163Z,3.50
2023-04-05T02:51:46.151Z,3.60
2023-04-05T02:54:14.954Z,3.60
2023-04-05T02:56:42.504Z,3.60
2023-04-05T02:59:09.995Z,3.60
2023-04-05T03:01:37.105Z,3.50
2023-04-05T03:04:04.905Z,3.60
2023-04-05T03:09:17.941Z,3.50
2023-04-05T03:11:45.389Z,3.30
2023-04-05T03:14:12.354Z,3.40
2023-04-05T03:16:40.341Z,3.50
2023-04-05T03:19:07.942Z,3.50
2023-04-05T03:21:34.912Z,3.50
2023-04-05T03:24:02.569Z,3.50
2023-04-05T03:26:31.467Z,3.50
2023-04-05T03:28:58.963Z,3.50
2023-04-05T03:31:26.000Z,3.30
2023-04-05T03:33:53.465Z,3.40
2023-04-05T03:36:20.407Z,3.40
2023-04-05T03:38:47.883Z,3.50
2023-04-05T03:41:16.191Z,3.40
2023-04-05T03:43:45.003Z,3.40
2023-04-05T03:46:12.561Z,3.30
2023-04-05T03:48:40.062Z,3.20
2023-04-05T03:51:08.504Z,3.20
2023-04-05T03:53:35.519Z,3.20
2023-04-05T03:56:03.117Z,3.20
2023-04-05T03:58:30.125Z,3.30
2023-04-05T04:00:58.919Z,3.20
2023-04-05T04:03:26.583Z,3.30
2023-04-05T04:05:53.645Z,3.30
2023-04-05T04:08:21.818Z,3.30
2023-04-05T04:10:49.557Z,3.30
2023-04-05T04:13:19.151Z,3.30
2023-04-05T04:15:46.631Z,3.30
2023-04-05T04:18:15.439Z,3.30
2023-04-05T04:20:42.557Z,3.10
2023-04-05T04:23:10.250Z,3.00
2023-04-05T04:25:37.660Z,3.10
2023-04-05T04:28:09.344Z,3.00
2023-04-05T04:30:36.407Z,3.00
2023-04-05T04:33:09.226Z,3.10
2023-04-05T04:35:41.171Z,3.10
2023-04-05T04:38:08.867Z,3.00
2023-04-05T04:40:41.179Z,3.00
2023-04-05T04:43:18.882Z,3.10
2023-04-05T04:45:48.334Z,3.10
2023-04-05T04:48:16.824Z,3.10
2023-04-05T04:50:46.693Z,3.00
2023-04-05T04:53:14.605Z,3.00
2023-04-05T04:55:42.491Z,2.90
2023-04-05T04:58:10.741Z,2.90
2023-04-05T05:00:40.054Z,2.80
2023-04-05T05:05:53.956Z,2.70
2023-04-05T05:08:21.572Z,2.80
2023-04-05T05:10:55.319Z,2.80
2023-04-05T05:13:22.480Z,2.90
2023-04-05T05:15:49.901Z,2.80
2023-04-05T05:18:17.324Z,2.80
2023-04-05T05:20:44.270Z,2.90
2023-04-05T05:23:12.537Z,3.00
2023-04-05T05:25:39.467Z,3.00
2023-04-05T05:28:06.414Z,3.00
2023-04-05T05:30:34.208Z,3.00
2023-04-05T05:33:01.316Z,3.00
2023-04-05T05:35:28.853Z,3.10
2023-04-05T05:37:55.888Z,3.00
2023-04-05T05:40:27.150Z,3.00
2023-04-05T05:42:54.199Z,3.00
2023-04-05T05:45:21.511Z,2.90
2023-04-05T05:47:48.944Z,2.90
2023-04-05T05:50:17.123Z,3.00
2023-04-05T05:52:44.649Z,3.00
2023-04-05T05:55:11.561Z,3.10
2023-04-05T05:57:40.840Z,3.10
2023-04-05T06:00:10.634Z,3.10
2023-04-05T06:02:37.744Z,3.10
2023-04-05T06:05:05.815Z,3.10
2023-04-05T06:07:37.080Z,3.10
2023-04-05T06:10:05.044Z,3.20
2023-04-05T06:12:32.723Z,3.30
2023-04-05T06:15:02.267Z,3.30
2023-04-05T06:17:29.356Z,3.40
2023-04-05T06:22:41.457Z,3.50
2023-04-05T06:25:10.055Z,3.50
2023-04-05T06:27:37.065Z,3.60
2023-04-05T06:30:07.610Z,3.70
2023-04-05T06:32:34.744Z,3.70
2023-04-05T06:35:05.120Z,3.70
2023-04-05T06:37:32.604Z,3.70
2023-04-05T06:40:00.381Z,3.70
2023-04-05T06:42:28.113Z,3.80
2023-04-05T06:44:55.423Z,4.00
2023-04-05T06:47:23.816Z,4.00
2023-04-05T06:49:50.980Z,4.20
2023-04-05T06:52:17.934Z,4.20
2023-04-05T06:54:44.904Z,4.30
2023-04-05T06:57:11.811Z,4.40
2023-04-05T06:59:38.765Z,4.40
2023-04-05T07:02:06.070Z,4.40
2023-04-05T07:04:37.319Z,4.40
2023-04-05T07:07:04.478Z,4.50
2023-04-05T07:09:33.309Z,4.60
2023-04-05T07:12:01.749Z,4.70
2023-04-05T07:14:30.685Z,4.80
2023-04-05T07:16:57.991Z,4.90
2023-04-05T07:19:25.487Z,4.90
2023-04-05T07:21:54.108Z,4.90
2023-04-05T07:24:21.647Z,5.00
2023-04-05T07:26:48.599Z,5.10
2023-04-05T07:29:15.941Z,5.10
2023-04-05T07:31:43.036Z,5.20
2023-04-05T07:34:10.010Z,5.20
2023-04-05T07:36:37.374Z,5.30
2023-04-05T07:39:05.860Z,5.40
2023-04-05T07:41:35.214Z,5.70
2023-04-05T07:44:02.665Z,6.40
2023-04-05T07:46:30.066Z,6.80
2023-04-05T07:48:58.227Z,7.00
2023-04-05T07:51:27.248Z,7.10
2023-04-05T07:53:54.292Z,7.10
2023-04-05T07:56:23.157Z,7.20
2023-04-05T07:58:51.585Z,7.50
2023-04-05T08:01:18.739Z,7.70
2023-04-05T08:03:45.904Z,7.80
2023-04-05T08:06:19.556Z,7.90
2023-04-05T08:08:47.095Z,8.00
2023-04-05T08:11:14.411Z,8.20
2023-04-05T08:13:43.248Z,8.50
2023-04-05T08:16:11.455Z,8.70
2023-04-05T08:18:38.830Z,9.10
2023-04-05T08:21:06.381Z,9.20
2023-04-05T08:23:33.408Z,9.40
2023-04-05T08:26:00.830Z,9.60
2023-04-05T08:28:28.330Z,9.90
2023-04-05T08:30:57.682Z,10.10
2023-04-05T08:33:26.456Z,10.30
2023-04-05T08:35:53.535Z,10.50
2023-04-05T08:38:21.554Z,10.60
2023-04-05T08:40:50.434Z,10.90
2023-04-05T08:43:26.976Z,10.90
2023-04-05T08:45:57.139Z,10.70
2023-04-05T08:48:24.228Z,10.80
2023-04-05T08:50:53.722Z,10.90
2023-04-05T08:53:21.453Z,10.90
2023-04-05T08:55:54.072Z,10.80
2023-04-05T08:58:23.214Z,10.90
2023-04-05T09:00:52.087Z,10.70
2023-04-05T09:03:24.043Z,10.50
2023-04-05T09:05:53.508Z,10.30
2023-04-05T09:08:23.543Z,10.00
2023-04-05T09:10:51.664Z,9.80
2023-04-05T09:13:19.367Z,9.90
2023-04-05T09:15:46.842Z,10.00
2023-04-05T09:18:25.576Z,10.00
2023-04-05T09:21:04.160Z,10.00
2023-04-05T09:23:31.772Z,9.90
2023-04-05T09:25:58.802Z,9.70
2023-04-05T09:28:41.508Z,9.60
2023-04-05T09:31:08.652Z,9.60
2023-04-05T09:33:37.243Z,9.70
2023-04-05T09:36:06.717Z,9.80
2023-04-05T09:38:45.200Z,9.70
2023-04-05T09:41:12.180Z,9.80
2023-04-05T09:43:41.229Z,9.60
2023-04-05T09:46:28.316Z,9.60
2023-04-05T09:48:56.933Z,9.70
2023-04-05T09:51:33.826Z,9.80
2023-04-05T09:54:03.777Z,9.80
2023-04-05T09:56:34.130Z,9.80
2023-04-05T09:59:04.502Z,9.70
2023-04-05T10:01:32.358Z,9.80
2023-04-05T10:04:01.124Z,9.80
2023-04-05T10:06:41.052Z,10.00
2023-04-05T10:09:10.517Z,10.00
2023-04-05T10:11:38.939Z,9.80
2023-04-05T10:14:08.114Z,9.90
2023-04-05T10:16:44.802Z,9.90
2023-04-05T10:19:28.645Z,10.00
2023-04-05T10:22:02.751Z,10.00
2023-04-05T10:24:37.773Z,10.00
2023-04-05T10:27:09.552Z,10.00
2023-04-05T10:29:52.127Z,10.10
2023-04-05T10:32:31.014Z,10.10
2023-04-05T10:35:07.111Z,10.10
2023-04-05T10:37:54.347Z,10.00
2023-04-05T10:40:22.516Z,10.00
2023-04-05T10:42:49.931Z,9.90
2023-04-05T10:45:23.094Z,10.00
2023-04-05T10:47:59.986Z,10.10
2023-04-05T10:50:27.662Z,10.20
2023-04-05T10:52:59.316Z,10.20
2023-04-05T10:55:26.856Z,10.30
2023-04-05T10:57:55.173Z,10.20
2023-04-05T11:00:24.111Z,10.10
2023-04-05T11:02:57.461Z,10.20
2023-04-05T11:05:36.118Z,10.30
2023-04-05T11:08:09.493Z,10.30
2023-04-05T11:10:39.228Z,10.30
2023-04-05T11:13:09.614Z,10.20
2023-04-05T11:15:37.735Z,10.30
2023-04-05T11:18:11.945Z,10.20
2023-04-05T11:20:46.088Z,10.30
2023-04-05T11:23:16.654Z,10.30
2023-04-05T11:25:51.357Z,10.40
2023-04-05T11:28:41.088Z,10.30
2023-04-05T11:31:16.534Z,10.40
2023-04-05T11:34:00.384Z,10.40
2023-04-05T11:36:34.097Z,10.50
2023-04-05T11:39:25.283Z,10.50
2023-04-05T11:42:01.383Z,10.50
2023-04-05T11:44:31.915Z,10.50
2023-04-05T11:46:59.504Z,10.50
2023-04-05T11:49:26.460Z,10.40
2023-04-05T11:51:54.780Z,10.50
2023-04-05T11:54:33.809Z,10.50
2023-04-05T11:57:02.612Z,10.50
2023-04-05T11:59:34.023Z,10.40
2023-04-05T12:02:03.660Z,10.30
2023-04-05T12:04:30.766Z,10.30
2023-04-05T12:07:16.868Z,10.30
2023-04-05T12:10:08.359Z,10.30
2023-04-05T12:12:38.695Z,10.30
2023-04-05T12:15:09.010Z,10.30
2023-04-05T12:17:41.991Z,10.30
2023-04-05T12:20:11.400Z,10.30
2023-04-05T12:22:41.343Z,10.40
2023-04-05T12:25:11.535Z,10.50
2023-04-05T12:27:39.431Z,10.50
2023-04-05T12:30:08.956Z,10.60
2023-04-05T12:32:41.398Z,10.60
2023-04-05T12:35:12.001Z,10.60
2023-04-05T12:37:41.649Z,10.60
2023-04-05T12:40:11.235Z,10.50
2023-04-05T12:42:40.337Z,10.50
2023-04-05T12:45:12.848Z,10.50
2023-04-05T12:47:58.669Z,10.50
2023-04-05T12:50:28.650Z,10.60
2023-04-05T12:53:00.562Z,10.70
2023-04-05T12:55:30.476Z,10.70
2023-04-05T12:58:00.185Z,10.80
2023-04-05T13:00:30.165Z,10.80
2023-04-05T13:02:59.578Z,10.80
2023-04-05T13:05:29.370Z,10.80
2023-04-05T13:07:56.743Z,10.90
2023-04-05T13:10:26.334Z,10.80
2023-04-05T13:12:55.270Z,10.90
2023-04-05T13:15:22.379Z,10.90
2023-04-05T13:17:51.086Z,10.80
2023-04-05T13:20:19.564Z,10.80
2023-04-05T13:22:47.123Z,10.80
2023-04-05T13:25:14.884Z,10.90
2023-04-05T13:27:42.106Z,10.90
2023-04-05T13:30:11.852Z,10.90
2023-04-05T13:32:38.895Z,10.80
2023-04-05T13:35:07.427Z,10.80
2023-04-05T13:37:34.406Z,10.70
2023-04-05T13:40:02.038Z,10.80
2023-04-05T13:42:29.545Z,10.80
2023-04-05T13:44:56.542Z,10.80
2023-04-05T13:47:25.292Z,10.80
2023-04-05T13:49:52.262Z,10.90
2023-04-05T13:52:19.230Z,11.00
2023-04-05T13:54:46.212Z,11.10
2023-04-05T13:57:15.041Z,11.10
2023-04-05T13:59:42.597Z,11.20
2023-04-05T14:02:12.040Z,11.20
2023-04-05T14:04:40.562Z,11.20
2023-04-05T14:07:08.452Z,11.20
2023-04-05T14:09:35.803Z,11.30
2023-04-05T14:12:04.211Z,11.40
2023-04-05T14:14:31.845Z,11.50
2023-04-05T14:16:59.453Z,11.50
2023-04-05T14:19:26.480Z,11.50
2023-04-05T14:21:54.909Z,11.50
2023-04-05T14:24:22.592Z,11.40
2023-04-05T14:26:50.087Z,11.40
2023-04-05T14:29:18.738Z,11.40
2023-04-05T14:31:46.464Z,11.50
2023-04-05T14:34:13.646Z,11.50
2023-04-05T14:36:40.970Z,11.50
2023-04-05T14:39:10.034Z,11.50
2023-04-05T14:41:37.983Z,11.60
2023-04-05T14:44:05.613Z,11.50
2023-04-05T14:46:33.139Z,11.50
2023-04-05T14:49:00.336Z,11.50
2023-04-05T14:51:27.571Z,11.60
2023-04-05T14:53:54.914Z,11.60
2023-04-05T14:56:23.956Z,11.60
2023-04-05T14:58:51.030Z,11.50
2023-04-05T15:01:18.808Z,11.50
2023-04-05T15:03:47.993Z,11.60
2023-04-05T15:06:16.724Z,11.60
2023-04-05T15:08:43.740Z,11.60
2023-04-05T15:11:10.938Z,11.60
2023-04-05T15:13:39.388Z,11.60
2023-04-05T15:16:06.603Z,11.60
2023-04-05T15:18:33.755Z,11.60
2023-04-05T15:21:01.436Z,11.60
2023-04-05T15:23:28.751Z,11.60
2023-04-05T15:25:55.807Z,11.50
2023-04-05T15:28:22.868Z,11.50
2023-04-05T15:30:51.348Z,11.50
2023-04-05T15:33:18.959Z,11.50
2023-04-05T15:35:46.080Z,11.50
2023-04-05T15:38:13.240Z,11.40
2023-04-05T15:40:40.491Z,11.50
2023-04-05T15:43:08.158Z,11.60
2023-04-05T15:45:35.301Z,11.60
2023-04-05T15:48:04.086Z,11.60
2023-04-05T15:50:31.200Z,11.60
2023-04-05T15:52:58.258Z,11.50
2023-04-05T15:55:25.318Z,11.60
2023-04-05T15:57:54.632Z,11.50
2023-04-05T16:00:22.666Z,11.60
2023-04-05T16:02:55.580Z,11.50
2023-04-05T16:05:24.692Z,11.60
2023-04-05T16:07:52.062Z,11.50
2023-04-05T16:10:19.678Z,11.50
2023-04-05T16:12:47.180Z,11.40
2023-04-05T16:15:14.689Z,11.40
2023-04-05T16:17:41.705Z,11.40
2023-04-05T16:20:09.834Z,11.40
2023-04-05T16:22:38.795Z,11.40
2023-04-05T16:25:06.648Z,11.40
2023-04-05T16:27:33.792Z,11.40
2023-04-05T16:30:00.955Z,11.40
2023-04-05T16:32:28.646Z,11.30
2023-04-05T16:34:55.744Z,11.30
2023-04-05T16:37:23.018Z,11.30
2023-04-05T16:39:52.027Z,11.30
2023-04-05T16:42:19.112Z,11.30
2023-04-05T16:44:46.940Z,11.20
2023-04-05T16:47:14.021Z,11.20
2023-04-05T16:49:41.056Z,11.20
2023-04-05T16:52:08.963Z,11.20
2023-04-05T16:54:36.600Z,11.10
2023-04-05T16:57:05.270Z,11.20
2023-04-05T16:59:32.434Z,11.20
2023-04-05T17:04:44.431Z,11.10
2023-04-05T17:07:12.005Z,11.10
2023-04-05T17:09:39.048Z,11.00
2023-04-05T17:12:10.760Z,11.00
2023-04-05T17:14:39.104Z,11.00
2023-04-05T17:17:06.332Z,11.00
2023-04-05T17:19:33.374Z,11.00
2023-04-05T17:22:00.458Z,11.00
2023-04-05T17:24:27.703Z,11.00
2023-04-05T17:26:54.769Z,11.00
2023-04-05T17:29:23.178Z,10.90
2023-04-05T17:31:51.336Z,10.90
2023-04-05T17:34:19.506Z,10.90
2023-04-05T17:36:46.798Z,10.90
2023-04-05T17:39:14.336Z,10.90
2023-04-05T17:41:42.003Z,10.80
2023-04-05T17:44:09.010Z,10.70
2023-04-05T17:46:44.633Z,10.70
2023-04-05T17:49:15.730Z,10.60
2023-04-05T17:51:43.187Z,10.60
2023-04-05T17:54:12.341Z,10.50
2023-04-05T17:56:39.865Z,10.50
2023-04-05T17:59:07.571Z,10.50
2023-04-05T18:01:34.992Z,10.50
2023-04-05T18:04:05.307Z,10.50
2023-04-05T18:06:32.671Z,10.50
2023-04-05T18:09:00.390Z,10.50
2023-04-05T18:11:27.493Z,10.50
2023-04-05T18:13:55.031Z,10.50
2023-04-05T18:16:22.777Z,10.50
2023-04-05T18:18:50.292Z,10.40
2023-04-05T18:21:18.916Z,10.40
2023-04-05T18:23:46.072Z,10.40
2023-04-05T18:26:14.325Z,10.40
2023-04-05T18:28:41.434Z,10.40
2023-04-05T18:31:09.349Z,10.40
2023-04-05T18:33:38.074Z,10.40
2023-04-05T18:36:06.335Z,10.30
2023-04-05T18:38:35.171Z,10.20
2023-04-05T18:41:03.871Z,10.10
2023-04-05T18:43:31.739Z,10.00
2023-04-05T18:45:58.860Z,9.80
2023-04-05T18:48:26.361Z,9.70
2023-04-05T18:50:54.044Z,9.60
2023-04-05T18:53:21.293Z,9.50
2023-04-05T18:55:52.431Z,9.50
2023-04-05T18:58:19.799Z,9.50
2023-04-05T19:00:46.888Z,9.50
2023-04-05T19:03:16.117Z,9.50
2023-04-05T19:05:49.481Z,9.40
2023-04-05T19:08:17.324Z,9.30
2023-04-05T19:10:44.467Z,9.20
2023-04-05T19:13:13.245Z,9.10
2023-04-05T19:15:40.791Z,9.00
2023-04-05T19:18:08.053Z,8.80
2023-04-05T19:20:35.736Z,8.70
2023-04-05T19:23:02.817Z,8.60
2023-04-05T19:25:29.903Z,8.70
2023-04-05T19:27:57.436Z,8.70
2023-04-05T19:30:25.940Z,8.70
2023-04-05T19:32:54.761Z,8.80
2023-04-05T19:35:22.066Z,8.70
2023-04-05T19:37:49.091Z,8.50
2023-04-05T19:40:16.416Z,8.40
2023-04-05T19:42:47.523Z,8.30
2023-04-05T19:45:27.046Z,8.20
2023-04-05T19:47:56.238Z,8.00
2023-04-05T19:50:56.171Z,8.00
2023-04-05T19:53:45.976Z,8.00
2023-04-05T19:56:18.327Z,7.90
2023-04-05T19:58:47.361Z,7.80
2023-04-05T20:01:34.129Z,7.70
2023-04-05T20:04:12.060Z,7.40
2023-04-05T20:06:41.441Z,7.30
2023-04-05T20:09:10.109Z,7.30
2023-04-05T20:11:37.974Z,7.20
2023-04-05T20:14:07.961Z,7.30
2023-04-05T20:16:37.858Z,7.60
2023-04-05T20:19:07.549Z,7.70
2023-04-05T20:21:35.237Z,7.70
2023-04-05T20:24:03.190Z,7.70
2023-04-05T20:26:32.693Z,7.70
2023-04-05T20:29:02.525Z,7.60
2023-04-05T20:31:31.923Z,7.40
2023-04-05T20:34:10.169Z,7.40
2023-04-05T20:36:40.318Z,7.20
2023-04-05T20:39:08.083Z,7.10
2023-04-05T20:41:35.249Z,7.10
2023-04-05T20:44:02.649Z,7.10
2023-04-05T20:46:29.998Z,7.10
2023-04-05T20:48:57.931Z,7.30
2023-04-05T20:51:26.856Z,7.30
2023-04-05T20:53:54.276Z,7.30
2023-04-05T20:56:21.426Z,7.30
2023-04-05T20:58:48.991Z,7.20
2023-04-05T21:01:16.372Z,7.20
2023-04-05T21:03:43.629Z,7.20
2023-04-05T21:06:11.058Z,7.30
2023-04-05T21:08:41.302Z,7.10
2023-04-05T21:11:11.634Z,7.00
2023-04-05T21:13:39.474Z,7.00
2023-04-05T21:16:07.197Z,7.10
2023-04-05T21:18:34.464Z,7.20
2023-04-05T21:21:01.784Z,7.10
2023-04-05T21:23:29.648Z,7.10
2023-04-05T21:25:59.536Z,7.10
2023-04-05T21:28:27.185Z,7.10
2023-04-05T21:30:54.356Z,7.00
2023-04-05T21:33:21.873Z,6.80
2023-04-05T21:35:49.182Z,6.80
2023-04-05T21:38:16.814Z,6.60
2023-04-05T21:40:44.651Z,6.50
2023-04-05T21:43:13.430Z,6.70
2023-04-05T21:45:40.914Z,6.70
2023-04-05T21:48:08.108Z,6.60
2023-04-05T21:50:35.301Z,6.60
2023-04-05T21:53:02.538Z,6.70
2023-04-05T21:55:29.903Z,6.80
2023-04-05T21:57:57.107Z,6.80
2023-04-05T22:00:25.943Z,6.70
2023-04-05T22:02:53.405Z,6.70
2023-04-05T22:05:30.140Z,6.70
2023-04-05T22:08:01.881Z,6.60
2023-04-05T22:10:29.142Z,6.50
2023-04-05T22:12:56.669Z,6.50
2023-04-05T22:15:25.479Z,6.50
2023-04-05T22:17:53.238Z,6.60
2023-04-05T22:20:20.624Z,6.60
2023-04-05T22:22:47.995Z,6.70
2023-04-05T22:25:15.517Z,6.70
2023-04-05T22:27:43.089Z,6.60
2023-04-05T22:30:11.072Z,6.50
2023-04-05T22:32:39.571Z,6.40
2023-04-05T22:35:07.822Z,6.40
2023-04-05T22:37:38.218Z,6.40
2023-04-05T22:40:06.870Z,6.30
2023-04-05T22:42:34.214Z,6.30
2023-04-05T22:45:04.148Z,6.20
2023-04-05T22:47:31.634Z,6.20
2023-04-05T22:50:00.409Z,5.90
2023-04-05T22:52:27.524Z,6.00
2023-04-05T22:54:54.787Z,6.00
2023-04-05T22:57:21.997Z,6.00
2023-04-05T22:59:49.540Z,6.00
2023-04-05T23:02:16.848Z,5.90
2023-04-05T23:04:44.099Z,5.90
2023-04-05T23:07:13.048Z,6.00
2023-04-05T23:09:40.539Z,5.80
2023-04-05T23:12:08.724Z,5.90
2023-04-05T23:14:36.041Z,5.90
2023-04-05T23:17:04.904Z,6.00
2023-04-05T23:19:32.567Z,6.00
2023-04-05T23:22:00.265Z,6.10
2023-04-05T23:24:28.939Z,6.10
2023-04-05T23:26:56.293Z,6.00
2023-04-05T23:29:23.552Z,5.90
2023-04-05T23:31:53.281Z,5.90
2023-04-05T23:34:20.834Z,5.80
2023-04-05T23:36:48.461Z,5.80
2023-04-05T23:39:15.775Z,5.70
2023-04-05T23:41:44.453Z,5.60
2023-04-05T23:44:11.707Z,5.50
2023-04-05T23:46:39.247Z,5.50
2023-04-05T23:49:06.712Z,5.50
2023-04-05T23:51:34.465Z,5.60
2023-04-05T23:54:01.834Z,5.60
2023-04-05T23:56:29.371Z,5.50
2023-04-05T23:58:58.682Z,5.40
